sensor_id;sensor_type;location;lat;lon;timestamp;pressure;altitude;pressure_sealevel;temperature;humidity
41312;BME280;27061;41.648;24.568;2023-01-25T00:00:54;86355.03;;;2.63;85.93
41312;BME280;27061;41.648;24.568;2023-01-25T00:03:21;86437.75;;;3.57;85.63
41312;BME280;27061;41.648;24.568;2023-01-25T00:05:57;86445.31;;;3.61;84.36
41312;BME280;27061;41.648;24.568;2023-01-25T00:08:25;86243.25;;;2.13;83.65
41312;BME280;27061;41.648;24.568;2023-01-25T00:10:52;86262.59;;;2.24;84.50
41312;BME280;27061;41.648;24.568;2023-01-25T00:13:19;86397.06;;;3.10;83.99
41312;BME280;27061;41.648;24.568;2023-01-25T00:15:47;86433.41;;;3.46;83.39
41312;BME280;27061;41.648;24.568;2023-01-25T00:18:14;86543.34;;;4.32;84.63
41312;BME280;27061;41.648;24.568;2023-01-25T00:20:45;86313.72;;;2.49;85.24
41312;BME280;27061;41.648;24.568;2023-01-25T00:23:14;86376.66;;;2.83;85.16
41312;BME280;27061;41.648;24.568;2023-01-25T00:25:44;86546.03;;;4.30;85.19
41312;BME280;27061;41.648;24.568;2023-01-25T00:28:11;86309.25;;;2.32;84.05
41312;BME280;27061;41.648;24.568;2023-01-25T00:30:41;86327.44;;;2.51;83.66
41312;BME280;27061;41.648;24.568;2023-01-25T00:35:47;86333.59;;;2.51;85.30
41312;BME280;27061;41.648;24.568;2023-01-25T00:38:28;86252.78;;;2.12;85.62
41312;BME280;27061;41.648;24.568;2023-01-25T00:40:57;86271.97;;;2.14;85.56
41312;BME280;27061;41.648;24.568;2023-01-25T00:43:26;86298.59;;;2.46;85.05
41312;BME280;27061;41.648;24.568;2023-01-25T00:46:01;86292.75;;;2.28;84.45
41312;BME280;27061;41.648;24.568;2023-01-25T00:48:29;86294.09;;;2.27;83.81
41312;BME280;27061;41.648;24.568;2023-01-25T00:51:00;86455.56;;;3.58;83.62
41312;BME280;27061;41.648;24.568;2023-01-25T00:53:28;86565.19;;;4.28;83.99
41312;BME280;27061;41.648;24.568;2023-01-25T00:55:58;86438.94;;;3.48;84.42
41312;BME280;27061;41.648;24.568;2023-01-25T00:58:26;86439.69;;;3.53;84.57
41312;BME280;27061;41.648;24.568;2023-01-25T01:00:54;86264.03;;;2.27;84.79
41312;BME280;27061;41.648;24.568;2023-01-25T01:03:23;86549.44;;;4.29;85.50
41312;BME280;27061;41.648;24.568;2023-01-25T01:06:10;86451.50;;;3.61;84.75
41312;BME280;27061;41.648;24.568;2023-01-25T01:08:39;86267.88;;;2.15;83.65
41312;BME280;27061;41.648;24.568;2023-01-25T01:11:10;86560.38;;;4.29;84.09
41312;BME280;27061;41.648;24.568;2023-01-25T01:13:38;86448.09;;;3.63;84.51
41312;BME280;27061;41.648;24.568;2023-01-25T01:16:07;86275.66;;;2.27;80.02
41312;BME280;27061;41.648;24.568;2023-01-25T01:18:43;86533.63;;;4.27;80.98
41312;BME280;27061;41.648;24.568;2023-01-25T01:21:12;86248.41;;;1.99;80.27
41312;BME280;27061;41.648;24.568;2023-01-25T01:23:39;86260.84;;;2.06;80.83
41312;BME280;27061;41.648;24.568;2023-01-25T01:26:11;86270.56;;;2.13;81.65
41312;BME280;27061;41.648;24.568;2023-01-25T01:28:39;86336.44;;;2.57;81.71
41312;BME280;27061;41.648;24.568;2023-01-25T01:31:13;86258.00;;;2.00;82.60
41312;BME280;27061;41.648;24.568;2023-01-25T01:33:50;86268.47;;;2.12;83.63
41312;BME280;27061;41.648;24.568;2023-01-25T01:36:20;86244.84;;;1.93;83.62
41312;BME280;27061;41.648;24.568;2023-01-25T01:38:48;86421.47;;;3.31;83.23
41312;BME280;27061;41.648;24.568;2023-01-25T01:41:18;86246.78;;;1.88;83.85
41312;BME280;27061;41.648;24.568;2023-01-25T01:43:46;86426.06;;;3.23;85.12
41312;BME280;27061;41.648;24.568;2023-01-25T01:46:20;86244.72;;;1.87;85.42
41312;BME280;27061;41.648;24.568;2023-01-25T01:48:59;86522.88;;;4.03;84.34
41312;BME280;27061;41.648;24.568;2023-01-25T01:51:48;86524.75;;;3.95;83.84
41312;BME280;27061;41.648;24.568;2023-01-25T01:54:29;86502.56;;;3.81;84.11
41312;BME280;27061;41.648;24.568;2023-01-25T01:59:57;86263.78;;;1.84;85.20
41312;BME280;27061;41.648;24.568;2023-01-25T02:02:26;86417.16;;;3.22;85.66
41312;BME280;27061;41.648;24.568;2023-01-25T02:04:58;86222.72;;;1.80;85.01
41312;BME280;27061;41.648;24.568;2023-01-25T02:07:38;86512.59;;;4.02;84.11
41312;BME280;27061;41.648;24.568;2023-01-25T02:10:09;86239.84;;;1.83;83.84
41312;BME280;27061;41.648;24.568;2023-01-25T02:12:39;86228.97;;;1.85;84.08
41312;BME280;27061;41.648;24.568;2023-01-25T02:15:08;86430.41;;;3.34;84.85
41312;BME280;27061;41.648;24.568;2023-01-25T02:17:38;86486.00;;;3.75;84.58
41312;BME280;27061;41.648;24.568;2023-01-25T02:26:00;86401.38;;;3.21;84.77
41312;BME280;27061;41.648;24.568;2023-01-25T02:31:22;86227.44;;;1.78;83.81
41312;BME280;27061;41.648;24.568;2023-01-25T02:33:49;86235.72;;;1.82;84.51
41312;BME280;27061;41.648;24.568;2023-01-25T02:36:20;86320.69;;;2.56;86.33
41312;BME280;27061;41.648;24.568;2023-01-25T02:44:04;86225.44;;;1.80;84.64
41312;BME280;27061;41.648;24.568;2023-01-25T02:46:35;86240.06;;;1.93;84.92
41312;BME280;27061;41.648;24.568;2023-01-25T02:49:05;86247.03;;;1.98;84.91
41312;BME280;27061;41.648;24.568;2023-01-25T02:51:39;86400.19;;;3.28;85.31
41312;BME280;27061;41.648;24.568;2023-01-25T02:54:08;86422.47;;;3.46;85.34
41312;BME280;27061;41.648;24.568;2023-01-25T02:56:37;86204.56;;;1.93;84.00
41312;BME280;27061;41.648;24.568;2023-01-25T02:59:08;86273.19;;;2.39;83.95
41312;BME280;27061;41.648;24.568;2023-01-25T03:01:38;86354.50;;;3.03;83.20
41312;BME280;27061;41.648;24.568;2023-01-25T03:04:07;86215.16;;;1.77;83.58
41312;BME280;27061;41.648;24.568;2023-01-25T03:06:37;86505.03;;;4.00;83.80
41312;BME280;27061;41.648;24.568;2023-01-25T03:09:07;86252.56;;;2.02;84.40
41312;BME280;27061;41.648;24.568;2023-01-25T03:11:36;86382.13;;;3.15;84.73
41312;BME280;27061;41.648;24.568;2023-01-25T03:14:04;86255.66;;;2.18;82.59
41312;BME280;27061;41.648;24.568;2023-01-25T03:16:32;86208.47;;;1.84;83.07
41312;BME280;27061;41.648;24.568;2023-01-25T03:19:02;86391.84;;;3.22;83.17
41312;BME280;27061;41.648;24.568;2023-01-25T03:21:30;86397.44;;;3.28;82.98
41312;BME280;27061;41.648;24.568;2023-01-25T03:24:00;86219.50;;;1.88;82.60
41312;BME280;27061;41.648;24.568;2023-01-25T03:26:36;86376.03;;;3.18;82.24
41312;BME280;27061;41.648;24.568;2023-01-25T03:29:39;86494.66;;;3.97;82.60
41312;BME280;27061;41.648;24.568;2023-01-25T03:32:12;86205.78;;;1.86;82.15
41312;BME280;27061;41.648;24.568;2023-01-25T03:34:40;86193.06;;;1.67;81.59
41312;BME280;27061;41.648;24.568;2023-01-25T03:37:08;86212.22;;;1.69;81.67
41312;BME280;27061;41.648;24.568;2023-01-25T03:39:37;86286.69;;;2.31;80.97
41312;BME280;27061;41.648;24.568;2023-01-25T03:42:06;86208.13;;;1.70;81.01
41312;BME280;27061;41.648;24.568;2023-01-25T03:44:42;86218.69;;;1.83;80.35
41312;BME280;27061;41.648;24.568;2023-01-25T03:47:09;86480.16;;;3.90;80.24
41312;BME280;27061;41.648;24.568;2023-01-25T03:49:37;86244.34;;;2.00;80.85
41312;BME280;27061;41.648;24.568;2023-01-25T03:52:11;86226.25;;;1.85;80.85
41312;BME280;27061;41.648;24.568;2023-01-25T03:54:43;86219.09;;;1.72;78.58
41312;BME280;27061;41.648;24.568;2023-01-25T03:57:12;86220.56;;;1.75;79.56
41312;BME280;27061;41.648;24.568;2023-01-25T03:59:53;86402.53;;;3.10;81.29
41312;BME280;27061;41.648;24.568;2023-01-25T04:02:23;86502.44;;;3.75;81.18
41312;BME280;27061;41.648;24.568;2023-01-25T04:04:51;86222.16;;;1.56;80.50
41312;BME280;27061;41.648;24.568;2023-01-25T04:07:20;86487.13;;;3.63;81.44
41312;BME280;27061;41.648;24.568;2023-01-25T04:09:48;86222.75;;;1.53;82.42
41312;BME280;27061;41.648;24.568;2023-01-25T04:12:18;86435.34;;;3.10;82.98
41312;BME280;27061;41.648;24.568;2023-01-25T04:14:46;86206.44;;;1.55;82.32
41312;BME280;27061;41.648;24.568;2023-01-25T04:17:30;86264.84;;;2.01;82.48
41312;BME280;27061;41.648;24.568;2023-01-25T04:20:00;86404.50;;;3.05;81.88
41312;BME280;27061;41.648;24.568;2023-01-25T04:22:34;86277.56;;;1.91;81.85
41312;BME280;27061;41.648;24.568;2023-01-25T04:25:04;86377.19;;;2.77;81.77
41312;BME280;27061;41.648;24.568;2023-01-25T04:27:32;86396.78;;;2.98;80.13
41312;BME280;27061;41.648;24.568;2023-01-25T04:30:05;86220.97;;;1.63;81.02
41312;BME280;27061;41.648;24.568;2023-01-25T04:32:36;86249.53;;;1.60;81.32
41312;BME280;27061;41.648;24.568;2023-01-25T04:35:14;86502.00;;;3.54;81.40
41312;BME280;27061;41.648;24.568;2023-01-25T04:37:43;86373.28;;;2.54;81.92
41312;BME280;27061;41.648;24.568;2023-01-25T04:40:11;86252.47;;;1.68;80.17
41312;BME280;27061;41.648;24.568;2023-01-25T04:42:42;86502.47;;;3.77;76.21
41312;BME280;27061;41.648;24.568;2023-01-25T04:45:10;86206.25;;;1.46;76.18
41312;BME280;27061;41.648;24.568;2023-01-25T04:47:38;86279.91;;;2.04;76.72
41312;BME280;27061;41.648;24.568;2023-01-25T04:50:06;86374.28;;;2.69;75.62
41312;BME280;27061;41.648;24.568;2023-01-25T04:52:34;86216.75;;;1.30;76.85
41312;BME280;27061;41.648;24.568;2023-01-25T04:55:01;86406.47;;;2.71;78.83
41312;BME280;27061;41.648;24.568;2023-01-25T04:57:34;86223.50;;;1.27;80.54
41312;BME280;27061;41.648;24.568;2023-01-25T05:00:02;86379.25;;;2.47;81.19
41312;BME280;27061;41.648;24.568;2023-01-25T05:02:32;86450.91;;;3.01;81.25
41312;BME280;27061;41.648;24.568;2023-01-25T05:05:00;86427.69;;;2.72;81.77
41312;BME280;27061;41.648;24.568;2023-01-25T05:07:28;86263.78;;;1.57;81.70
41312;BME280;27061;41.648;24.568;2023-01-25T05:09:55;86220.75;;;1.25;82.38
41312;BME280;27061;41.648;24.568;2023-01-25T05:12:32;86210.97;;;1.16;82.20
41312;BME280;27061;41.648;24.568;2023-01-25T05:15:05;86399.41;;;2.62;82.73
41312;BME280;27061;41.648;24.568;2023-01-25T05:17:33;86240.81;;;1.38;82.31
41312;BME280;27061;41.648;24.568;2023-01-25T05:20:04;86501.56;;;3.34;80.17
41312;BME280;27061;41.648;24.568;2023-01-25T05:22:32;86395.81;;;2.53;81.17
41312;BME280;27061;41.648;24.568;2023-01-25T05:24:59;86365.13;;;2.27;80.82
41312;BME280;27061;41.648;24.568;2023-01-25T05:27:28;86406.03;;;2.52;81.45
41312;BME280;27061;41.648;24.568;2023-01-25T05:29:57;86410.19;;;2.55;82.06
41312;BME280;27061;41.648;24.568;2023-01-25T05:32:52;86378.97;;;2.35;80.93
41312;BME280;27061;41.648;24.568;2023-01-25T05:35:21;86227.75;;;1.06;80.78
41312;BME280;27061;41.648;24.568;2023-01-25T05:37:56;86272.81;;;1.35;80.66
41312;BME280;27061;41.648;24.568;2023-01-25T05:40:25;86517.81;;;3.26;81.69
41312;BME280;27061;41.648;24.568;2023-01-25T05:42:58;86318.47;;;1.89;81.34
41312;BME280;27061;41.648;24.568;2023-01-25T05:45:28;86209.41;;;1.09;81.69
41312;BME280;27061;41.648;24.568;2023-01-25T05:47:57;86513.63;;;3.23;81.54
41312;BME280;27061;41.648;24.568;2023-01-25T05:50:25;86412.91;;;2.53;82.22
41312;BME280;27061;41.648;24.568;2023-01-25T05:52:59;86504.19;;;3.28;80.93
41312;BME280;27061;41.648;24.568;2023-01-25T05:55:47;86399.88;;;2.52;81.92
41312;BME280;27061;41.648;24.568;2023-01-25T05:58:15;86216.38;;;1.14;81.66
41312;BME280;27061;41.648;24.568;2023-01-25T06:00:43;86237.09;;;1.25;81.87
41312;BME280;27061;41.648;24.568;2023-01-25T06:03:19;86497.31;;;3.27;82.17
41312;BME280;27061;41.648;24.568;2023-01-25T06:05:54;86395.66;;;2.47;82.30
41312;BME280;27061;41.648;24.568;2023-01-25T06:08:23;86383.09;;;2.36;82.73
41312;BME280;27061;41.648;24.568;2023-01-25T06:11:08;86195.38;;;0.93;82.36
41312;BME280;27061;41.648;24.568;2023-01-25T06:13:41;86238.84;;;1.13;82.39
41312;BME280;27061;41.648;24.568;2023-01-25T06:16:09;86350.78;;;1.98;81.75
41312;BME280;27061;41.648;24.568;2023-01-25T06:18:40;86496.06;;;3.02;80.75
41312;BME280;27061;41.648;24.568;2023-01-25T06:21:28;86345.53;;;2.06;81.76
41312;BME280;27061;41.648;24.568;2023-01-25T06:23:56;86256.34;;;1.31;82.21
41312;BME280;27061;41.648;24.568;2023-01-25T06:26:24;86509.56;;;3.24;82.14
41312;BME280;27061;41.648;24.568;2023-01-25T06:28:54;86489.34;;;3.07;81.09
41312;BME280;27061;41.648;24.568;2023-01-25T06:31:21;86225.91;;;1.13;81.68
41312;BME280;27061;41.648;24.568;2023-01-25T06:33:50;86215.91;;;0.96;82.15
41312;BME280;27061;41.648;24.568;2023-01-25T06:36:21;86404.38;;;2.39;82.92
41312;BME280;27061;41.648;24.568;2023-01-25T06:38:50;86407.22;;;2.45;82.63
41312;BME280;27061;41.648;24.568;2023-01-25T06:41:19;86220.25;;;1.05;83.04
41312;BME280;27061;41.648;24.568;2023-01-25T06:43:49;86390.75;;;2.41;83.53
41312;BME280;27061;41.648;24.568;2023-01-25T06:46:18;86410.91;;;2.56;83.52
41312;BME280;27061;41.648;24.568;2023-01-25T06:48:50;86238.69;;;1.34;83.29
41312;BME280;27061;41.648;24.568;2023-01-25T06:51:20;86411.28;;;2.72;81.72
41312;BME280;27061;41.648;24.568;2023-01-25T06:53:47;86381.28;;;2.46;82.25
41312;BME280;27061;41.648;24.568;2023-01-25T06:56:19;86252.53;;;1.42;82.44
41312;BME280;27061;41.648;24.568;2023-01-25T06:58:49;86239.59;;;1.43;82.73
41312;BME280;27061;41.648;24.568;2023-01-25T07:01:22;86404.78;;;2.57;81.53
41312;BME280;27061;41.648;24.568;2023-01-25T07:03:56;86406.97;;;2.63;81.32
41312;BME280;27061;41.648;24.568;2023-01-25T07:06:25;86397.03;;;2.48;83.82
41312;BME280;27061;41.648;24.568;2023-01-25T07:09:04;86279.38;;;1.52;83.30
41312;BME280;27061;41.648;24.568;2023-01-25T07:11:33;86330.56;;;2.09;79.76
41312;BME280;27061;41.648;24.568;2023-01-25T07:14:00;86406.22;;;2.61;80.71
41312;BME280;27061;41.648;24.568;2023-01-25T07:16:28;86232.94;;;1.22;82.74
41312;BME280;27061;41.648;24.568;2023-01-25T07:19:05;86228.88;;;1.23;82.88
41312;BME280;27061;41.648;24.568;2023-01-25T07:21:33;86391.41;;;2.40;83.91
41312;BME280;27061;41.648;24.568;2023-01-25T07:24:02;86208.25;;;1.16;83.82
41312;BME280;27061;41.648;24.568;2023-01-25T07:26:31;86270.41;;;1.48;83.28
41312;BME280;27061;41.648;24.568;2023-01-25T07:28:58;86235.91;;;1.32;83.12
41312;BME280;27061;41.648;24.568;2023-01-25T07:31:27;86395.88;;;2.57;84.06
41312;BME280;27061;41.648;24.568;2023-01-25T07:33:56;86223.72;;;1.35;84.13
41312;BME280;27061;41.648;24.568;2023-01-25T07:36:24;86409.84;;;2.69;83.77
41312;BME280;27061;41.648;24.568;2023-01-25T07:38:57;86212.91;;;1.12;83.73
41312;BME280;27061;41.648;24.568;2023-01-25T07:41:25;86237.81;;;1.26;82.51
41312;BME280;27061;41.648;24.568;2023-01-25T07:43:53;86404.03;;;2.55;83.14
41312;BME280;27061;41.648;24.568;2023-01-25T07:46:33;86391.53;;;2.46;84.02
41312;BME280;27061;41.648;24.568;2023-01-25T07:49:01;86223.31;;;1.19;84.07
41312;BME280;27061;41.648;24.568;2023-01-25T07:51:29;86211.00;;;1.18;83.02
41312;BME280;27061;41.648;24.568;2023-01-25T07:53:59;86238.09;;;1.38;83.98
41312;BME280;27061;41.648;24.568;2023-01-25T07:56:31;86387.69;;;2.57;84.20
41312;BME280;27061;41.648;24.568;2023-01-25T07:59:00;86415.47;;;2.75;85.08
41312;BME280;27061;41.648;24.568;2023-01-25T08:01:31;86220.94;;;1.33;85.41
41312;BME280;27061;41.648;24.568;2023-01-25T08:04:01;86249.22;;;1.46;85.63
41312;BME280;27061;41.648;24.568;2023-01-25T08:06:30;86247.22;;;1.48;85.58
41312;BME280;27061;41.648;24.568;2023-01-25T08:09:07;86403.25;;;2.80;85.12
41312;BME280;27061;41.648;24.568;2023-01-25T08:11:35;86285.56;;;1.82;85.37
41312;BME280;27061;41.648;24.568;2023-01-25T08:14:03;86230.84;;;1.48;84.21
41312;BME280;27061;41.648;24.568;2023-01-25T08:16:30;86192.56;;;1.44;83.94
41312;BME280;27061;41.648;24.568;2023-01-25T08:18:59;86380.63;;;2.78;83.43
41312;BME280;27061;41.648;24.568;2023-01-25T08:21:33;86239.28;;;1.59;84.08
41312;BME280;27061;41.648;24.568;2023-01-25T08:24:03;86242.34;;;1.73;81.65
41312;BME280;27061;41.648;24.568;2023-01-25T08:26:33;86228.75;;;1.75;81.99
41312;BME280;27061;41.648;24.568;2023-01-25T08:29:01;86371.88;;;2.83;82.63
41312;BME280;27061;41.648;24.568;2023-01-25T08:31:31;86268.00;;;1.90;82.18
41312;BME280;27061;41.648;24.568;2023-01-25T08:34:00;86528.31;;;3.67;82.57
41312;BME280;27061;41.648;24.568;2023-01-25T08:36:33;86201.56;;;1.51;81.77
41312;BME280;27061;41.648;24.568;2023-01-25T08:39:06;86381.44;;;2.82;80.13
41312;BME280;27061;41.648;24.568;2023-01-25T08:41:35;86435.63;;;3.22;80.48
41312;BME280;27061;41.648;24.568;2023-01-25T08:44:03;86235.41;;;1.68;80.68
41312;BME280;27061;41.648;24.568;2023-01-25T08:46:32;86447.78;;;3.15;81.91
41312;BME280;27061;41.648;24.568;2023-01-25T08:49:00;86482.84;;;3.54;81.91
41312;BME280;27061;41.648;24.568;2023-01-25T08:51:29;86364.69;;;2.68;81.13
41312;BME280;27061;41.648;24.568;2023-01-25T08:54:10;86393.34;;;2.95;82.11
41312;BME280;27061;41.648;24.568;2023-01-25T08:56:40;86236.88;;;1.73;81.04
41312;BME280;27061;41.648;24.568;2023-01-25T08:59:11;86224.34;;;1.62;81.27
41312;BME280;27061;41.648;24.568;2023-01-25T09:01:39;86399.06;;;3.07;82.18
41312;BME280;27061;41.648;24.568;2023-01-25T09:04:06;86366.47;;;2.87;82.31
41312;BME280;27061;41.648;24.568;2023-01-25T09:06:34;86238.44;;;1.82;82.15
41312;BME280;27061;41.648;24.568;2023-01-25T09:09:01;86192.91;;;1.61;82.82
41312;BME280;27061;41.648;24.568;2023-01-25T09:11:33;86298.34;;;2.34;82.89
41312;BME280;27061;41.648;24.568;2023-01-25T09:14:04;86347.91;;;2.82;82.43
41312;BME280;27061;41.648;24.568;2023-01-25T09:16:32;86224.66;;;1.76;82.68
41312;BME280;27061;41.648;24.568;2023-01-25T09:19:02;86201.09;;;1.59;83.25
41312;BME280;27061;41.648;24.568;2023-01-25T09:21:31;86315.06;;;2.48;81.87
41312;BME280;27061;41.648;24.568;2023-01-25T09:24:01;86379.25;;;3.09;82.26
41312;BME280;27061;41.648;24.568;2023-01-25T09:26:38;86169.44;;;1.48;82.55
41312;BME280;27061;41.648;24.568;2023-01-25T09:29:18;86191.75;;;1.68;82.50
41312;BME280;27061;41.648;24.568;2023-01-25T09:31:46;86346.84;;;2.95;82.91
41312;BME280;27061;41.648;24.568;2023-01-25T09:34:36;86198.06;;;1.76;82.15
41312;BME280;27061;41.648;24.568;2023-01-25T09:37:03;86337.56;;;2.78;81.85
41312;BME280;27061;41.648;24.568;2023-01-25T09:39:31;86180.81;;;1.68;81.98
41312;BME280;27061;41.648;24.568;2023-01-25T09:42:11;86351.19;;;3.08;82.89
41312;BME280;27061;41.648;24.568;2023-01-25T09:45:39;86218.53;;;2.07;82.38
41312;BME280;27061;41.648;24.568;2023-01-25T09:53:35;86181.25;;;1.88;83.99
41312;BME280;27061;41.648;24.568;2023-01-25T09:56:16;86328.06;;;3.13;83.69
41312;BME280;27061;41.648;24.568;2023-01-25T09:58:47;86329.31;;;3.08;84.02
41312;BME280;27061;41.648;24.568;2023-01-25T10:01:45;86417.22;;;3.94;84.00
41312;BME280;27061;41.648;24.568;2023-01-25T10:04:20;86152.66;;;1.91;83.17
41312;BME280;27061;41.648;24.568;2023-01-25T10:06:52;86234.81;;;2.67;82.78
41312;BME280;27061;41.648;24.568;2023-01-25T10:09:41;86137.22;;;1.72;83.73
41312;BME280;27061;41.648;24.568;2023-01-25T10:12:17;86156.13;;;1.94;84.17
41312;BME280;27061;41.648;24.568;2023-01-25T10:14:45;86161.19;;;2.07;84.59
41312;BME280;27061;41.648;24.568;2023-01-25T10:17:39;86316.84;;;3.35;84.96
41312;BME280;27061;41.648;24.568;2023-01-25T14:49:49;86213.47;;;3.72;84.34
41312;BME280;27061;41.648;24.568;2023-01-25T14:52:18;86206.38;;;3.56;84.35
41312;BME280;27061;41.648;24.568;2023-01-25T14:54:55;86218.31;;;3.75;84.17
41312;BME280;27061;41.648;24.568;2023-01-25T14:59:52;86196.16;;;3.59;84.49
41312;BME280;27061;41.648;24.568;2023-01-25T15:02:25;86196.91;;;3.63;83.64
41312;BME280;27061;41.648;24.568;2023-01-25T15:07:42;86222.53;;;3.80;83.81
41312;BME280;27061;41.648;24.568;2023-01-25T15:10:23;86223.22;;;3.83;82.15
41312;BME280;27061;41.648;24.568;2023-01-25T15:16:01;86198.00;;;3.46;82.86
41312;BME280;27061;41.648;24.568;2023-01-25T15:21:28;86191.19;;;3.47;83.35
41312;BME280;27061;41.648;24.568;2023-01-25T15:24:00;86218.94;;;3.72;83.87
41312;BME280;27061;41.648;24.568;2023-01-25T15:26:34;86177.34;;;3.39;83.95
41312;BME280;27061;41.648;24.568;2023-01-25T15:29:14;86227.13;;;3.70;82.95
41312;BME280;27061;41.648;24.568;2023-01-25T15:31:41;86210.72;;;3.70;82.27
41312;BME280;27061;41.648;24.568;2023-01-25T15:34:17;86203.69;;;3.60;82.57
41312;BME280;27061;41.648;24.568;2023-01-25T15:36:45;86218.19;;;3.67;82.27
41312;BME280;27061;41.648;24.568;2023-01-25T15:39:14;86213.38;;;3.65;82.75
41312;BME280;27061;41.648;24.568;2023-01-25T15:41:43;86173.81;;;3.33;81.73
41312;BME280;27061;41.648;24.568;2023-01-25T15:44:10;86216.72;;;3.62;81.94
41312;BME280;27061;41.648;24.568;2023-01-25T15:46:43;86101.81;;;2.82;82.45
41312;BME280;27061;41.648;24.568;2023-01-25T15:49:23;86221.53;;;3.63;83.58
41312;BME280;27061;41.648;24.568;2023-01-25T15:51:51;86178.41;;;3.22;83.18
41312;BME280;27061;41.648;24.568;2023-01-25T15:54:19;86202.13;;;3.47;83.08
41312;BME280;27061;41.648;24.568;2023-01-25T15:56:50;86224.97;;;3.64;82.53
41312;BME280;27061;41.648;24.568;2023-01-25T15:59:18;86215.91;;;3.53;82.40
41312;BME280;27061;41.648;24.568;2023-01-25T16:01:45;86149.31;;;3.01;82.99
41312;BME280;27061;41.648;24.568;2023-01-25T16:04:12;86175.59;;;3.16;83.05
41312;BME280;27061;41.648;24.568;2023-01-25T16:06:43;86237.88;;;3.57;82.33
41312;BME280;27061;41.648;24.568;2023-01-25T16:11:43;86198.91;;;3.21;83.40
41312;BME280;27061;41.648;24.568;2023-01-25T16:14:11;86134.97;;;2.62;83.77
41312;BME280;27061;41.648;24.568;2023-01-25T17:08:26;86176.63;;;2.97;85.16
41312;BME280;27061;41.648;24.568;2023-01-25T17:10:53;86176.75;;;3.05;85.82
41312;BME280;27061;41.648;24.568;2023-01-25T17:13:23;86142.22;;;2.85;86.15
41312;BME280;27061;41.648;24.568;2023-01-25T17:15:50;86113.09;;;2.62;85.99
41312;BME280;27061;41.648;24.568;2023-01-25T17:18:17;86107.53;;;2.58;85.49
41312;BME280;27061;41.648;24.568;2023-01-25T17:20:44;86197.59;;;3.24;86.02
41312;BME280;27061;41.648;24.568;2023-01-25T17:52:35;86175.59;;;3.16;85.02
41312;BME280;27061;41.648;24.568;2023-01-25T17:55:02;86152.06;;;3.01;85.38
41312;BME280;27061;41.648;24.568;2023-01-25T17:57:32;86182.59;;;3.25;85.82
41312;BME280;27061;41.648;24.568;2023-01-25T17:59:59;86167.38;;;3.16;86.22
41312;BME280;27061;41.648;24.568;2023-01-25T18:02:26;86180.56;;;3.27;85.79
41312;BME280;27061;41.648;24.568;2023-01-25T18:04:53;86048.16;;;2.25;84.35
41312;BME280;27061;41.648;24.568;2023-01-25T18:07:20;86145.38;;;3.10;84.36
41312;BME280;27061;41.648;24.568;2023-01-25T18:09:47;86135.81;;;3.11;84.08
41312;BME280;27061;41.648;24.568;2023-01-25T18:12:14;86093.47;;;2.74;83.28
41312;BME280;27061;41.648;24.568;2023-01-25T18:14:45;86128.06;;;2.97;82.96
41312;BME280;27061;41.648;24.568;2023-01-25T18:17:12;86101.81;;;2.82;83.48
41312;BME280;27061;41.648;24.568;2023-01-25T18:19:39;86083.06;;;2.64;84.72
41312;BME280;27061;41.648;24.568;2023-01-25T18:22:08;86100.25;;;2.71;84.49
41312;BME280;27061;41.648;24.568;2023-01-25T18:24:35;86123.13;;;2.89;83.96
41312;BME280;27061;41.648;24.568;2023-01-25T18:27:05;86089.38;;;2.73;83.38
41312;BME280;27061;41.648;24.568;2023-01-25T18:29:38;86137.81;;;3.06;84.29
41312;BME280;27061;41.648;24.568;2023-01-25T18:32:06;86176.69;;;3.41;84.17
41312;BME280;27061;41.648;24.568;2023-01-25T18:34:33;86054.81;;;2.51;84.31
41312;BME280;27061;41.648;24.568;2023-01-25T18:37:02;86170.41;;;3.34;85.05
41312;BME280;27061;41.648;24.568;2023-01-25T18:39:44;86146.19;;;3.18;83.79
41312;BME280;27061;41.648;24.568;2023-01-25T18:42:11;86148.22;;;3.16;84.01
41312;BME280;27061;41.648;24.568;2023-01-25T18:44:38;86175.97;;;3.40;84.31
41312;BME280;27061;41.648;24.568;2023-01-25T18:47:06;86121.22;;;2.98;84.11
41312;BME280;27061;41.648;24.568;2023-01-25T18:49:33;86139.97;;;3.14;82.93
41312;BME280;27061;41.648;24.568;2023-01-25T18:52:00;86144.84;;;3.17;83.35
41312;BME280;27061;41.648;24.568;2023-01-25T18:54:37;86079.59;;;2.62;81.98
41312;BME280;27061;41.648;24.568;2023-01-25T18:57:04;86177.94;;;3.34;82.36
41312;BME280;27061;41.648;24.568;2023-01-25T18:59:32;86108.03;;;2.86;82.04
41312;BME280;27061;41.648;24.568;2023-01-25T19:01:59;86119.84;;;2.97;81.51
41312;BME280;27061;41.648;24.568;2023-01-25T19:04:27;86122.03;;;3.05;80.89
41312;BME280;27061;41.648;24.568;2023-01-25T19:06:54;86099.69;;;2.78;81.68
41312;BME280;27061;41.648;24.568;2023-01-25T19:09:27;86108.84;;;2.93;81.97
41312;BME280;27061;41.648;24.568;2023-01-25T19:11:54;86146.06;;;3.10;81.82
41312;BME280;27061;41.648;24.568;2023-01-25T19:14:22;86142.72;;;3.14;82.39
41312;BME280;27061;41.648;24.568;2023-01-25T19:16:49;86111.72;;;3.01;82.28
41312;BME280;27061;41.648;24.568;2023-01-25T19:19:17;86140.25;;;3.30;82.17
41312;BME280;27061;41.648;24.568;2023-01-25T19:21:44;86099.88;;;2.88;81.42
41312;BME280;27061;41.648;24.568;2023-01-25T19:24:14;86090.31;;;2.89;81.72
41312;BME280;27061;41.648;24.568;2023-01-25T19:26:44;86084.97;;;2.96;81.48
41312;BME280;27061;41.648;24.568;2023-01-25T19:29:12;86089.09;;;2.99;80.57
41312;BME280;27061;41.648;24.568;2023-01-25T19:31:40;86080.91;;;2.99;80.80
41312;BME280;27061;41.648;24.568;2023-01-25T19:34:07;86057.38;;;2.81;80.75
41312;BME280;27061;41.648;24.568;2023-01-25T19:36:36;86119.00;;;3.26;81.79
41312;BME280;27061;41.648;24.568;2023-01-25T19:39:05;86097.31;;;2.97;82.04
41312;BME280;27061;41.648;24.568;2023-01-25T19:41:36;86084.81;;;2.85;82.15
41312;BME280;27061;41.648;24.568;2023-01-25T19:48:24;86106.31;;;3.05;82.47
41312;BME280;27061;41.648;24.568;2023-01-25T19:50:51;86055.09;;;2.68;83.07
41312;BME280;27061;41.648;24.568;2023-01-25T19:53:18;86123.66;;;3.20;83.21